Meriden, KS (66512)

3:27 PM CDT on September 03, 2015 (GMT -0500)
Pleasant Hill Area | | Change Station
CLOSE
Current Station
Personal Weather Station
Location: Topeka, KS
Elevation: 1037 ft
Nearby Weather Stations

Elev 1037 ft 39.15 °N, 95.67 °W | Updated 12 minutes ago

Clear
Clear
96.1 °F
Feels Like 104 °F
N
11.4
Wind Variable Wind from North

Today
High -- | Low -- °F
--% Chance of Precip.
Yesterday
High -- | Low -- °F
Precip. -- in
6:52 AM 7:50 PM
Waning Gibbous, 67% visible
Pressure 29.85 in
Visibility 10.0 miles
Clouds Clear
Heat Index 104 °F
Dew Point 71 °F
Humidity 44%
Rainfall 0.00 in
Snow Depth Not available.
UV 8 out of 12
Pollen 11.40 out of 12
Air Quality Not available.
Flu Activity Not available.
METAR KTOP 031953Z 17012G21KT 10SM CLR 33/19 A2988 RMK AO2 SLP107 T03330194
Pressure 29.85 in
Visibility 10.0 miles
Clouds Clear
Heat Index 104 °F
Dew Point 71 °F
Humidity 44%
Rainfall 0.00 in
Snow Depth Not available.
UV 8 out of 12
Pollen 11.40 out of 12
Air Quality Not available.
Flu Activity Not available.
METAR KTOP 031953Z 17012G21KT 10SM CLR 33/19 A2988 RMK AO2 SLP107 T03330194

10-Day Weather Forecast

×

Almanac

Astronomy

Sep. 03, 2015 Rise Set
Actual Time
Civil Twilight
Nautical Twilight
Astronomical Twilight
Moon
Length of Visible Light
Length of Day
Tomorrow will be .
, % of the Moon is Illuminated

Today's Extremes

State Highs State Lows

Community

WunderPhotos

Upload Photos

1,852,029 photos uploaded!

WunderBlogs® & News

Nearby

Air Quality

  Air Quality AQ Index Pollutant
Not available.

Snow Depth

Station Depth Elevation

Earthquake Activity

City Distance Mag. Time & Date
Minimum magnitude displayed is 2.5.

Coastal Water Temperatures

Place Temperature

Stations

Nearby Weather Stations

Station Location Temp. Windchill Dew Point Humidity Wind Precip. Elev Updated Type